Terminal Aerodrome Forecast
Issued by NWS

Home | Current Version | Previous Version | Text Only | Print | Product List | Glossary On
Versions: 1 2 3 4 5 6 7 8 9 10 11 12 13 14 15 16 17 18 19 20 21 22 23
000
FTUS43 KJKL 201300 AAA
TAFSME
TAF AMD
KSME 201313Z 2013/2112 00000KT P6SM SCT025
     FM201800 26004KT P6SM SCT040
     FM210600 VRB03KT 5SM BR VCTS SCT040CB=

USA.gov is the U.S. government's official web portal to all federal, state and local government web resources and services.